sensor_id;sensor_type;location;lat;lon;timestamp;temperature;humidity
59999;DHT22;45859;51.378;6.736;2022-08-19T00:02:10;19.00;99.90
59999;DHT22;45859;51.378;6.736;2022-08-19T00:04:36;19.00;99.90
59999;DHT22;45859;51.378;6.736;2022-08-19T00:07:04;18.90;99.90
59999;DHT22;45859;51.378;6.736;2022-08-19T00:09:30;18.90;99.90
59999;DHT22;45859;51.378;6.736;2022-08-19T00:11:57;18.90;99.90
59999;DHT22;45859;51.378;6.736;2022-08-19T00:14:25;18.80;99.90
59999;DHT22;45859;51.378;6.736;2022-08-19T00:16:52;18.80;99.90
59999;DHT22;45859;51.378;6.736;2022-08-19T00:19:20;18.80;99.90
59999;DHT22;45859;51.378;6.736;2022-08-19T00:21:46;18.80;99.90
59999;DHT22;45859;51.378;6.736;2022-08-19T00:24:14;18.80;99.90
59999;DHT22;45859;51.378;6.736;2022-08-19T00:26:41;18.80;99.90
59999;DHT22;45859;51.378;6.736;2022-08-19T00:29:10;18.70;99.90
59999;DHT22;45859;51.378;6.736;2022-08-19T00:31:37;18.70;99.90
59999;DHT22;45859;51.378;6.736;2022-08-19T00:34:03;18.60;99.90
59999;DHT22;45859;51.378;6.736;2022-08-19T00:36:29;18.60;99.90
59999;DHT22;45859;51.378;6.736;2022-08-19T00:38:55;18.60;99.90
59999;DHT22;45859;51.378;6.736;2022-08-19T00:41:23;18.50;99.90
59999;DHT22;45859;51.378;6.736;2022-08-19T00:46:30;18.40;99.90
59999;DHT22;45859;51.378;6.736;2022-08-19T00:48:56;18.40;99.90
59999;DHT22;45859;51.378;6.736;2022-08-19T00:51:27;18.30;99.90
59999;DHT22;45859;51.378;6.736;2022-08-19T00:53:55;18.30;99.90
59999;DHT22;45859;51.378;6.736;2022-08-19T00:56:22;18.30;99.90
59999;DHT22;45859;51.378;6.736;2022-08-19T00:58:48;18.30;99.90
59999;DHT22;45859;51.378;6.736;2022-08-19T01:01:14;18.30;99.90
59999;DHT22;45859;51.378;6.736;2022-08-19T01:03:41;18.30;99.90
59999;DHT22;45859;51.378;6.736;2022-08-19T01:06:07;18.30;99.90
59999;DHT22;45859;51.378;6.736;2022-08-19T01:08:33;18.30;99.90
59999;DHT22;45859;51.378;6.736;2022-08-19T01:10:59;18.30;99.90
59999;DHT22;45859;51.378;6.736;2022-08-19T01:13:29;18.30;99.90
59999;DHT22;45859;51.378;6.736;2022-08-19T01:15:59;18.20;99.90
59999;DHT22;45859;51.378;6.736;2022-08-19T01:18:27;18.20;99.90
59999;DHT22;45859;51.378;6.736;2022-08-19T01:20:55;18.20;99.90
59999;DHT22;45859;51.378;6.736;2022-08-19T01:23:21;18.10;99.90
59999;DHT22;45859;51.378;6.736;2022-08-19T01:26:09;18.10;99.90
59999;DHT22;45859;51.378;6.736;2022-08-19T01:28:39;18.10;99.90
59999;DHT22;45859;51.378;6.736;2022-08-19T01:31:09;18.10;99.90
59999;DHT22;45859;51.378;6.736;2022-08-19T01:33:37;18.00;99.90
59999;DHT22;45859;51.378;6.736;2022-08-19T01:36:26;18.10;99.90
59999;DHT22;45859;51.378;6.736;2022-08-19T01:38:53;18.00;99.90
59999;DHT22;45859;51.378;6.736;2022-08-19T01:41:19;18.00;99.90
59999;DHT22;45859;51.378;6.736;2022-08-19T01:43:45;17.90;99.90
59999;DHT22;45859;51.378;6.736;2022-08-19T01:46:11;17.90;99.90
59999;DHT22;45859;51.378;6.736;2022-08-19T01:48:40;17.80;99.90
59999;DHT22;45859;51.378;6.736;2022-08-19T01:51:10;17.80;99.90
59999;DHT22;45859;51.378;6.736;2022-08-19T01:53:36;17.80;99.90
59999;DHT22;45859;51.378;6.736;2022-08-19T01:56:03;17.80;99.90
59999;DHT22;45859;51.378;6.736;2022-08-19T01:58:36;17.80;99.90
59999;DHT22;45859;51.378;6.736;2022-08-19T02:01:05;17.80;99.90
59999;DHT22;45859;51.378;6.736;2022-08-19T02:03:32;17.70;99.90
59999;DHT22;45859;51.378;6.736;2022-08-19T02:06:01;17.70;99.90
59999;DHT22;45859;51.378;6.736;2022-08-19T02:08:29;17.70;99.90
59999;DHT22;45859;51.378;6.736;2022-08-19T02:10:56;17.70;99.90
59999;DHT22;45859;51.378;6.736;2022-08-19T02:13:23;17.70;99.90
59999;DHT22;45859;51.378;6.736;2022-08-19T02:15:48;17.60;99.90
59999;DHT22;45859;51.378;6.736;2022-08-19T02:18:14;17.70;99.90
59999;DHT22;45859;51.378;6.736;2022-08-19T02:20:41;17.60;99.90
59999;DHT22;45859;51.378;6.736;2022-08-19T02:23:08;17.60;99.90
59999;DHT22;45859;51.378;6.736;2022-08-19T02:25:34;17.60;99.90
59999;DHT22;45859;51.378;6.736;2022-08-19T02:28:00;17.60;99.90
59999;DHT22;45859;51.378;6.736;2022-08-19T02:30:26;17.50;99.90
59999;DHT22;45859;51.378;6.736;2022-08-19T02:32:52;17.50;99.90
59999;DHT22;45859;51.378;6.736;2022-08-19T02:35:19;17.50;99.90
59999;DHT22;45859;51.378;6.736;2022-08-19T02:37:45;17.50;99.90
59999;DHT22;45859;51.378;6.736;2022-08-19T02:40:30;17.50;99.90
59999;DHT22;45859;51.378;6.736;2022-08-19T02:42:59;17.50;99.90
59999;DHT22;45859;51.378;6.736;2022-08-19T02:45:26;17.50;99.90
59999;DHT22;45859;51.378;6.736;2022-08-19T02:47:52;17.50;99.90
59999;DHT22;45859;51.378;6.736;2022-08-19T02:50:18;17.50;99.90
59999;DHT22;45859;51.378;6.736;2022-08-19T02:52:44;17.40;99.90
59999;DHT22;45859;51.378;6.736;2022-08-19T02:55:10;17.50;99.90
59999;DHT22;45859;51.378;6.736;2022-08-19T02:57:36;17.50;99.90
59999;DHT22;45859;51.378;6.736;2022-08-19T03:00:05;17.50;99.90
59999;DHT22;45859;51.378;6.736;2022-08-19T03:02:31;17.50;99.90
59999;DHT22;45859;51.378;6.736;2022-08-19T03:04:57;17.50;99.90
59999;DHT22;45859;51.378;6.736;2022-08-19T03:07:23;17.40;99.90
59999;DHT22;45859;51.378;6.736;2022-08-19T03:09:48;17.50;99.90
59999;DHT22;45859;51.378;6.736;2022-08-19T03:12:14;17.40;99.90
59999;DHT22;45859;51.378;6.736;2022-08-19T03:14:40;17.40;99.90
59999;DHT22;45859;51.378;6.736;2022-08-19T03:17:07;17.40;99.90
59999;DHT22;45859;51.378;6.736;2022-08-19T03:19:33;17.40;99.90
59999;DHT22;45859;51.378;6.736;2022-08-19T03:21:59;17.40;99.90
59999;DHT22;45859;51.378;6.736;2022-08-19T03:24:28;17.40;99.90
59999;DHT22;45859;51.378;6.736;2022-08-19T03:26:55;17.40;99.90
59999;DHT22;45859;51.378;6.736;2022-08-19T03:29:28;17.40;99.90
59999;DHT22;45859;51.378;6.736;2022-08-19T03:31:54;17.40;99.90
59999;DHT22;45859;51.378;6.736;2022-08-19T03:34:29;17.40;99.90
59999;DHT22;45859;51.378;6.736;2022-08-19T03:36:58;17.50;99.90
59999;DHT22;45859;51.378;6.736;2022-08-19T03:39:25;17.60;99.90
59999;DHT22;45859;51.378;6.736;2022-08-19T03:41:53;17.60;99.90
59999;DHT22;45859;51.378;6.736;2022-08-19T03:44:21;17.70;99.90
59999;DHT22;45859;51.378;6.736;2022-08-19T03:46:50;17.80;99.90
59999;DHT22;45859;51.378;6.736;2022-08-19T03:49:17;17.80;99.90
59999;DHT22;45859;51.378;6.736;2022-08-19T03:51:43;17.80;99.90
59999;DHT22;45859;51.378;6.736;2022-08-19T03:54:11;17.90;99.90
59999;DHT22;45859;51.378;6.736;2022-08-19T03:56:43;17.90;99.90
59999;DHT22;45859;51.378;6.736;2022-08-19T03:59:18;17.90;99.90
59999;DHT22;45859;51.378;6.736;2022-08-19T04:01:44;17.90;99.90
59999;DHT22;45859;51.378;6.736;2022-08-19T04:04:11;17.80;99.90
59999;DHT22;45859;51.378;6.736;2022-08-19T04:06:38;17.90;99.90
59999;DHT22;45859;51.378;6.736;2022-08-19T04:09:07;17.80;99.90
59999;DHT22;45859;51.378;6.736;2022-08-19T04:11:46;17.80;99.90
59999;DHT22;45859;51.378;6.736;2022-08-19T04:14:18;17.80;99.90
59999;DHT22;45859;51.378;6.736;2022-08-19T04:16:46;17.80;99.90
59999;DHT22;45859;51.378;6.736;2022-08-19T04:19:12;17.70;99.90
59999;DHT22;45859;51.378;6.736;2022-08-19T04:21:39;17.70;99.90
59999;DHT22;45859;51.378;6.736;2022-08-19T04:24:05;17.60;99.90
59999;DHT22;45859;51.378;6.736;2022-08-19T04:26:34;17.60;99.90
59999;DHT22;45859;51.378;6.736;2022-08-19T04:29:03;17.60;99.90
59999;DHT22;45859;51.378;6.736;2022-08-19T04:31:30;17.60;99.90
59999;DHT22;45859;51.378;6.736;2022-08-19T04:33:58;17.60;99.90
59999;DHT22;45859;51.378;6.736;2022-08-19T04:36:31;17.50;99.90
59999;DHT22;45859;51.378;6.736;2022-08-19T04:39:00;17.50;99.90
59999;DHT22;45859;51.378;6.736;2022-08-19T04:41:26;17.50;99.90
59999;DHT22;45859;51.378;6.736;2022-08-19T04:44:11;17.50;99.90
59999;DHT22;45859;51.378;6.736;2022-08-19T04:46:37;17.50;99.90
59999;DHT22;45859;51.378;6.736;2022-08-19T04:49:04;17.50;99.90
59999;DHT22;45859;51.378;6.736;2022-08-19T04:51:31;17.50;99.90
59999;DHT22;45859;51.378;6.736;2022-08-19T04:53:57;17.50;99.90
59999;DHT22;45859;51.378;6.736;2022-08-19T04:56:25;17.50;99.90
59999;DHT22;45859;51.378;6.736;2022-08-19T04:58:53;17.40;99.90
59999;DHT22;45859;51.378;6.736;2022-08-19T05:01:28;17.40;99.90
59999;DHT22;45859;51.378;6.736;2022-08-19T05:03:55;17.50;99.90
59999;DHT22;45859;51.378;6.736;2022-08-19T05:06:22;17.40;99.90
59999;DHT22;45859;51.378;6.736;2022-08-19T05:08:48;17.50;99.90
59999;DHT22;45859;51.378;6.736;2022-08-19T05:11:17;17.50;99.90
59999;DHT22;45859;51.378;6.736;2022-08-19T05:13:44;17.60;99.90
59999;DHT22;45859;51.378;6.736;2022-08-19T05:16:12;17.70;99.90
59999;DHT22;45859;51.378;6.736;2022-08-19T05:18:39;17.70;99.90
59999;DHT22;45859;51.378;6.736;2022-08-19T05:21:25;17.70;99.90
59999;DHT22;45859;51.378;6.736;2022-08-19T05:24:11;17.80;99.90
59999;DHT22;45859;51.378;6.736;2022-08-19T05:26:39;17.90;99.90
59999;DHT22;45859;51.378;6.736;2022-08-19T05:29:06;17.90;99.90
59999;DHT22;45859;51.378;6.736;2022-08-19T05:31:34;17.90;99.90
59999;DHT22;45859;51.378;6.736;2022-08-19T05:34:01;18.00;99.90
59999;DHT22;45859;51.378;6.736;2022-08-19T05:36:28;17.90;99.90
59999;DHT22;45859;51.378;6.736;2022-08-19T05:38:54;18.10;99.90
59999;DHT22;45859;51.378;6.736;2022-08-19T05:41:22;18.10;99.90
59999;DHT22;45859;51.378;6.736;2022-08-19T05:44:00;18.20;99.90
59999;DHT22;45859;51.378;6.736;2022-08-19T05:46:26;18.50;99.90
59999;DHT22;45859;51.378;6.736;2022-08-19T05:48:52;18.60;99.90
59999;DHT22;45859;51.378;6.736;2022-08-19T05:51:19;18.80;99.90
59999;DHT22;45859;51.378;6.736;2022-08-19T05:53:44;19.00;99.90
59999;DHT22;45859;51.378;6.736;2022-08-19T05:56:15;19.20;99.90
59999;DHT22;45859;51.378;6.736;2022-08-19T05:58:42;19.60;99.90
59999;DHT22;45859;51.378;6.736;2022-08-19T06:01:12;20.10;99.90
59999;DHT22;45859;51.378;6.736;2022-08-19T06:03:39;20.60;99.90
59999;DHT22;45859;51.378;6.736;2022-08-19T06:06:07;21.20;99.90
59999;DHT22;45859;51.378;6.736;2022-08-19T06:08:34;21.20;99.90
59999;DHT22;45859;51.378;6.736;2022-08-19T06:11:16;21.30;99.90
59999;DHT22;45859;51.378;6.736;2022-08-19T06:13:43;21.40;99.90
59999;DHT22;45859;51.378;6.736;2022-08-19T06:16:13;22.10;99.90
59999;DHT22;45859;51.378;6.736;2022-08-19T06:18:38;22.60;99.90
59999;DHT22;45859;51.378;6.736;2022-08-19T06:21:04;23.40;99.90
59999;DHT22;45859;51.378;6.736;2022-08-19T06:23:30;23.70;99.90
59999;DHT22;45859;51.378;6.736;2022-08-19T06:25:56;23.90;99.90
59999;DHT22;45859;51.378;6.736;2022-08-19T06:28:22;24.40;99.90
59999;DHT22;45859;51.378;6.736;2022-08-19T06:30:49;25.30;99.90
59999;DHT22;45859;51.378;6.736;2022-08-19T06:33:15;25.90;99.90
59999;DHT22;45859;51.378;6.736;2022-08-19T06:35:41;25.90;99.90
59999;DHT22;45859;51.378;6.736;2022-08-19T06:38:07;26.30;99.90
59999;DHT22;45859;51.378;6.736;2022-08-19T06:40:34;26.30;99.90
59999;DHT22;45859;51.378;6.736;2022-08-19T06:43:01;26.20;99.90
59999;DHT22;45859;51.378;6.736;2022-08-19T06:45:28;26.30;99.90
59999;DHT22;45859;51.378;6.736;2022-08-19T06:47:54;26.30;99.90
59999;DHT22;45859;51.378;6.736;2022-08-19T06:50:22;26.00;99.90
59999;DHT22;45859;51.378;6.736;2022-08-19T06:52:48;26.40;99.90
59999;DHT22;45859;51.378;6.736;2022-08-19T06:55:14;26.70;99.90
59999;DHT22;45859;51.378;6.736;2022-08-19T06:57:41;27.20;99.90
59999;DHT22;45859;51.378;6.736;2022-08-19T07:00:08;27.10;99.90
59999;DHT22;45859;51.378;6.736;2022-08-19T07:02:41;27.40;99.90
59999;DHT22;45859;51.378;6.736;2022-08-19T07:05:07;27.00;99.90
59999;DHT22;45859;51.378;6.736;2022-08-19T07:07:33;27.20;99.90
59999;DHT22;45859;51.378;6.736;2022-08-19T07:10:00;27.30;99.90
59999;DHT22;45859;51.378;6.736;2022-08-19T07:12:30;27.70;99.90
59999;DHT22;45859;51.378;6.736;2022-08-19T07:14:59;28.20;99.90
59999;DHT22;45859;51.378;6.736;2022-08-19T07:17:26;28.80;99.90
59999;DHT22;45859;51.378;6.736;2022-08-19T07:19:52;29.30;99.90
59999;DHT22;45859;51.378;6.736;2022-08-19T07:22:18;29.40;99.90
59999;DHT22;45859;51.378;6.736;2022-08-19T07:24:46;29.90;99.90
59999;DHT22;45859;51.378;6.736;2022-08-19T07:27:13;30.00;99.90
59999;DHT22;45859;51.378;6.736;2022-08-19T07:29:39;29.60;99.90
59999;DHT22;45859;51.378;6.736;2022-08-19T07:32:05;29.90;99.90
59999;DHT22;45859;51.378;6.736;2022-08-19T07:34:32;30.40;99.90
59999;DHT22;45859;51.378;6.736;2022-08-19T07:37:03;30.80;99.90
59999;DHT22;45859;51.378;6.736;2022-08-19T07:39:31;31.00;99.90
59999;DHT22;45859;51.378;6.736;2022-08-19T07:41:58;31.30;99.90
59999;DHT22;45859;51.378;6.736;2022-08-19T07:44:24;31.30;99.90
59999;DHT22;45859;51.378;6.736;2022-08-19T07:46:54;31.30;99.90
59999;DHT22;45859;51.378;6.736;2022-08-19T07:49:22;31.10;99.90
59999;DHT22;45859;51.378;6.736;2022-08-19T07:51:50;31.40;99.90
59999;DHT22;45859;51.378;6.736;2022-08-19T07:54:16;31.30;99.90
59999;DHT22;45859;51.378;6.736;2022-08-19T07:56:42;31.50;99.90
59999;DHT22;45859;51.378;6.736;2022-08-19T07:59:08;31.30;99.90
59999;DHT22;45859;51.378;6.736;2022-08-19T08:01:35;31.30;99.90
59999;DHT22;45859;51.378;6.736;2022-08-19T08:04:01;31.50;99.90
59999;DHT22;45859;51.378;6.736;2022-08-19T08:06:45;31.30;99.90
59999;DHT22;45859;51.378;6.736;2022-08-19T08:09:36;31.80;99.90
59999;DHT22;45859;51.378;6.736;2022-08-19T08:12:06;31.60;99.90
59999;DHT22;45859;51.378;6.736;2022-08-19T08:14:44;31.70;99.90
59999;DHT22;45859;51.378;6.736;2022-08-19T08:17:11;30.90;99.90
59999;DHT22;45859;51.378;6.736;2022-08-19T08:19:38;30.60;99.90
59999;DHT22;45859;51.378;6.736;2022-08-19T08:22:07;30.30;99.90
59999;DHT22;45859;51.378;6.736;2022-08-19T08:24:33;30.10;99.90
59999;DHT22;45859;51.378;6.736;2022-08-19T08:27:01;29.70;99.90
59999;DHT22;45859;51.378;6.736;2022-08-19T08:29:30;29.10;99.90
59999;DHT22;45859;51.378;6.736;2022-08-19T08:31:56;28.70;99.90
59999;DHT22;45859;51.378;6.736;2022-08-19T08:34:22;28.50;99.90
59999;DHT22;45859;51.378;6.736;2022-08-19T08:36:48;28.20;99.90
59999;DHT22;45859;51.378;6.736;2022-08-19T08:39:17;27.90;99.90
59999;DHT22;45859;51.378;6.736;2022-08-19T08:41:58;27.60;99.90
59999;DHT22;45859;51.378;6.736;2022-08-19T08:47:04;27.50;99.90
59999;DHT22;45859;51.378;6.736;2022-08-19T08:52:11;27.20;99.90
59999;DHT22;45859;51.378;6.736;2022-08-19T08:54:47;27.00;99.90
59999;DHT22;45859;51.378;6.736;2022-08-19T08:57:27;26.90;99.90
59999;DHT22;45859;51.378;6.736;2022-08-19T08:59:55;27.70;99.90
59999;DHT22;45859;51.378;6.736;2022-08-19T09:02:22;28.20;99.90
59999;DHT22;45859;51.378;6.736;2022-08-19T09:04:48;28.80;99.90
59999;DHT22;45859;51.378;6.736;2022-08-19T09:07:23;28.80;99.90
59999;DHT22;45859;51.378;6.736;2022-08-19T09:09:51;28.60;99.90
59999;DHT22;45859;51.378;6.736;2022-08-19T09:15:08;27.80;99.90
59999;DHT22;45859;51.378;6.736;2022-08-19T09:17:35;27.60;99.90
59999;DHT22;45859;51.378;6.736;2022-08-19T09:22:41;27.30;99.90
59999;DHT22;45859;51.378;6.736;2022-08-19T09:25:12;27.40;99.90
59999;DHT22;45859;51.378;6.736;2022-08-19T09:27:40;27.50;99.90
59999;DHT22;45859;51.378;6.736;2022-08-19T09:30:07;27.50;99.90
59999;DHT22;45859;51.378;6.736;2022-08-19T09:32:33;27.50;99.90
59999;DHT22;45859;51.378;6.736;2022-08-19T09:34:59;27.40;99.90
59999;DHT22;45859;51.378;6.736;2022-08-19T09:37:26;27.30;99.90
59999;DHT22;45859;51.378;6.736;2022-08-19T09:39:52;27.20;99.90
59999;DHT22;45859;51.378;6.736;2022-08-19T09:42:18;26.80;99.90
59999;DHT22;45859;51.378;6.736;2022-08-19T09:44:44;26.70;99.90
59999;DHT22;45859;51.378;6.736;2022-08-19T09:47:11;26.50;99.90
59999;DHT22;45859;51.378;6.736;2022-08-19T09:49:38;26.40;99.90
59999;DHT22;45859;51.378;6.736;2022-08-19T09:52:05;26.40;99.90
59999;DHT22;45859;51.378;6.736;2022-08-19T09:54:31;26.40;99.90
59999;DHT22;45859;51.378;6.736;2022-08-19T09:57:01;26.40;99.90
59999;DHT22;45859;51.378;6.736;2022-08-19T09:59:27;26.40;99.90
59999;DHT22;45859;51.378;6.736;2022-08-19T10:01:52;26.40;99.90
59999;DHT22;45859;51.378;6.736;2022-08-19T10:04:18;26.50;99.90
59999;DHT22;45859;51.378;6.736;2022-08-19T10:06:46;26.60;99.90
59999;DHT22;45859;51.378;6.736;2022-08-19T10:09:15;26.90;99.90
59999;DHT22;45859;51.378;6.736;2022-08-19T10:11:42;27.00;99.90
59999;DHT22;45859;51.378;6.736;2022-08-19T10:14:08;26.90;99.90
59999;DHT22;45859;51.378;6.736;2022-08-19T10:16:36;26.90;99.90
59999;DHT22;45859;51.378;6.736;2022-08-19T10:19:02;26.90;99.90
59999;DHT22;45859;51.378;6.736;2022-08-19T10:21:31;26.70;99.90
59999;DHT22;45859;51.378;6.736;2022-08-19T10:23:59;26.70;99.90
59999;DHT22;45859;51.378;6.736;2022-08-19T10:26:29;26.70;99.90
59999;DHT22;45859;51.378;6.736;2022-08-19T10:28:56;26.80;99.90
59999;DHT22;45859;51.378;6.736;2022-08-19T10:31:26;26.90;99.90
59999;DHT22;45859;51.378;6.736;2022-08-19T10:33:52;26.90;99.90
59999;DHT22;45859;51.378;6.736;2022-08-19T10:36:29;27.10;99.90
59999;DHT22;45859;51.378;6.736;2022-08-19T10:38:58;27.10;99.90
59999;DHT22;45859;51.378;6.736;2022-08-19T10:41:30;27.20;99.90
59999;DHT22;45859;51.378;6.736;2022-08-19T10:44:04;27.10;99.90
59999;DHT22;45859;51.378;6.736;2022-08-19T10:46:31;27.40;99.90
59999;DHT22;45859;51.378;6.736;2022-08-19T10:48:58;27.40;99.90
59999;DHT22;45859;51.378;6.736;2022-08-19T10:51:24;27.50;99.90
59999;DHT22;45859;51.378;6.736;2022-08-19T10:54:09;27.50;99.90
59999;DHT22;45859;51.378;6.736;2022-08-19T10:56:35;27.70;99.90
59999;DHT22;45859;51.378;6.736;2022-08-19T10:59:29;27.90;99.90
59999;DHT22;45859;51.378;6.736;2022-08-19T11:02:03;28.10;99.90
59999;DHT22;45859;51.378;6.736;2022-08-19T11:04:29;28.20;99.90
59999;DHT22;45859;51.378;6.736;2022-08-19T11:06:55;28.10;99.90
59999;DHT22;45859;51.378;6.736;2022-08-19T11:09:23;28.10;99.90
59999;DHT22;45859;51.378;6.736;2022-08-19T11:11:55;28.20;99.90
59999;DHT22;45859;51.378;6.736;2022-08-19T11:14:22;28.30;99.90
59999;DHT22;45859;51.378;6.736;2022-08-19T11:16:51;28.30;99.90
59999;DHT22;45859;51.378;6.736;2022-08-19T11:19:18;28.20;99.90
59999;DHT22;45859;51.378;6.736;2022-08-19T11:21:47;28.10;99.90
59999;DHT22;45859;51.378;6.736;2022-08-19T11:24:16;28.10;99.90
59999;DHT22;45859;51.378;6.736;2022-08-19T11:26:44;28.30;99.90
59999;DHT22;45859;51.378;6.736;2022-08-19T11:29:11;28.40;99.90
59999;DHT22;45859;51.378;6.736;2022-08-19T11:31:43;28.60;99.90
59999;DHT22;45859;51.378;6.736;2022-08-19T11:34:13;28.50;99.90
59999;DHT22;45859;51.378;6.736;2022-08-19T11:36:42;28.50;99.90
59999;DHT22;45859;51.378;6.736;2022-08-19T11:39:11;28.50;99.90
59999;DHT22;45859;51.378;6.736;2022-08-19T11:41:37;28.40;99.90
59999;DHT22;45859;51.378;6.736;2022-08-19T11:44:03;28.10;99.90
59999;DHT22;45859;51.378;6.736;2022-08-19T11:46:30;27.80;99.90
59999;DHT22;45859;51.378;6.736;2022-08-19T11:48:57;27.60;99.90
59999;DHT22;45859;51.378;6.736;2022-08-19T11:51:24;27.60;99.90
59999;DHT22;45859;51.378;6.736;2022-08-19T11:53:51;27.50;99.90
59999;DHT22;45859;51.378;6.736;2022-08-19T11:56:18;27.60;99.90
59999;DHT22;45859;51.378;6.736;2022-08-19T11:58:44;27.60;99.90
59999;DHT22;45859;51.378;6.736;2022-08-19T12:01:11;27.60;99.90
59999;DHT22;45859;51.378;6.736;2022-08-19T12:03:38;27.80;99.90
59999;DHT22;45859;51.378;6.736;2022-08-19T12:06:09;27.90;99.90
59999;DHT22;45859;51.378;6.736;2022-08-19T12:08:35;28.10;99.90
59999;DHT22;45859;51.378;6.736;2022-08-19T12:11:01;28.10;99.90
59999;DHT22;45859;51.378;6.736;2022-08-19T12:13:29;28.20;99.90
59999;DHT22;45859;51.378;6.736;2022-08-19T12:15:55;28.00;99.90
59999;DHT22;45859;51.378;6.736;2022-08-19T12:18:21;27.90;99.90
59999;DHT22;45859;51.378;6.736;2022-08-19T12:20:46;27.80;99.90
59999;DHT22;45859;51.378;6.736;2022-08-19T12:23:13;27.80;99.90
59999;DHT22;45859;51.378;6.736;2022-08-19T12:25:45;27.50;99.90
59999;DHT22;45859;51.378;6.736;2022-08-19T12:28:18;27.60;99.90
59999;DHT22;45859;51.378;6.736;2022-08-19T12:30:44;27.60;99.90
59999;DHT22;45859;51.378;6.736;2022-08-19T12:33:10;27.60;99.90
59999;DHT22;45859;51.378;6.736;2022-08-19T12:35:40;27.70;99.90
59999;DHT22;45859;51.378;6.736;2022-08-19T12:38:06;27.60;99.90
59999;DHT22;45859;51.378;6.736;2022-08-19T12:40:32;27.60;99.90
59999;DHT22;45859;51.378;6.736;2022-08-19T12:42:57;27.50;99.90
59999;DHT22;45859;51.378;6.736;2022-08-19T12:45:23;27.50;99.90
59999;DHT22;45859;51.378;6.736;2022-08-19T12:47:48;27.50;99.90
59999;DHT22;45859;51.378;6.736;2022-08-19T12:50:14;27.50;99.90
59999;DHT22;45859;51.378;6.736;2022-08-19T12:52:40;27.50;99.90
59999;DHT22;45859;51.378;6.736;2022-08-19T12:55:08;27.50;99.90
59999;DHT22;45859;51.378;6.736;2022-08-19T12:57:34;27.30;99.90
59999;DHT22;45859;51.378;6.736;2022-08-19T13:02:29;27.30;99.90
59999;DHT22;45859;51.378;6.736;2022-08-19T13:04:57;27.40;99.90
59999;DHT22;45859;51.378;6.736;2022-08-19T13:07:23;27.40;99.90
59999;DHT22;45859;51.378;6.736;2022-08-19T13:09:51;27.40;99.90
59999;DHT22;45859;51.378;6.736;2022-08-19T13:12:17;27.40;99.90
59999;DHT22;45859;51.378;6.736;2022-08-19T13:14:45;27.50;99.90
59999;DHT22;45859;51.378;6.736;2022-08-19T13:17:16;27.50;99.90
59999;DHT22;45859;51.378;6.736;2022-08-19T13:19:42;27.50;99.90
59999;DHT22;45859;51.378;6.736;2022-08-19T13:22:07;27.60;99.90
59999;DHT22;45859;51.378;6.736;2022-08-19T13:24:33;27.60;99.90
59999;DHT22;45859;51.378;6.736;2022-08-19T13:27:00;27.50;99.90
59999;DHT22;45859;51.378;6.736;2022-08-19T13:29:26;27.40;99.90
59999;DHT22;45859;51.378;6.736;2022-08-19T13:32:10;27.50;99.90
59999;DHT22;45859;51.378;6.736;2022-08-19T13:34:54;27.60;99.90
59999;DHT22;45859;51.378;6.736;2022-08-19T13:37:19;27.70;99.90
59999;DHT22;45859;51.378;6.736;2022-08-19T13:40:06;27.60;99.90
59999;DHT22;45859;51.378;6.736;2022-08-19T13:42:32;27.60;99.90
59999;DHT22;45859;51.378;6.736;2022-08-19T13:44:58;27.60;99.90
59999;DHT22;45859;51.378;6.736;2022-08-19T13:47:24;27.60;99.90
59999;DHT22;45859;51.378;6.736;2022-08-19T13:49:50;27.70;99.90
59999;DHT22;45859;51.378;6.736;2022-08-19T13:52:15;27.60;99.90
59999;DHT22;45859;51.378;6.736;2022-08-19T13:54:41;27.50;99.90
59999;DHT22;45859;51.378;6.736;2022-08-19T13:57:07;27.50;99.90
59999;DHT22;45859;51.378;6.736;2022-08-19T13:59:32;27.40;99.90
59999;DHT22;45859;51.378;6.736;2022-08-19T14:01:59;27.30;99.90
59999;DHT22;45859;51.378;6.736;2022-08-19T14:04:25;27.10;99.90
59999;DHT22;45859;51.378;6.736;2022-08-19T14:06:51;27.00;99.90
59999;DHT22;45859;51.378;6.736;2022-08-19T14:09:16;27.00;99.90
59999;DHT22;45859;51.378;6.736;2022-08-19T14:11:42;27.10;99.90
59999;DHT22;45859;51.378;6.736;2022-08-19T14:14:10;27.10;99.90
59999;DHT22;45859;51.378;6.736;2022-08-19T14:16:36;27.00;99.90
59999;DHT22;45859;51.378;6.736;2022-08-19T14:19:02;26.90;99.90
59999;DHT22;45859;51.378;6.736;2022-08-19T14:21:27;26.90;99.90
59999;DHT22;45859;51.378;6.736;2022-08-19T14:23:53;26.90;99.90
59999;DHT22;45859;51.378;6.736;2022-08-19T14:26:21;27.00;99.90
59999;DHT22;45859;51.378;6.736;2022-08-19T14:28:47;27.20;99.90
59999;DHT22;45859;51.378;6.736;2022-08-19T14:31:14;27.20;99.90
59999;DHT22;45859;51.378;6.736;2022-08-19T14:33:43;27.20;99.90
59999;DHT22;45859;51.378;6.736;2022-08-19T14:36:09;27.10;99.90
59999;DHT22;45859;51.378;6.736;2022-08-19T14:38:35;27.00;99.90
59999;DHT22;45859;51.378;6.736;2022-08-19T14:43:36;26.80;99.90
59999;DHT22;45859;51.378;6.736;2022-08-19T14:46:02;26.80;99.90
59999;DHT22;45859;51.378;6.736;2022-08-19T14:48:27;26.80;99.90
59999;DHT22;45859;51.378;6.736;2022-08-19T14:50:53;26.90;99.90
59999;DHT22;45859;51.378;6.736;2022-08-19T14:53:19;26.80;99.90
59999;DHT22;45859;51.378;6.736;2022-08-19T14:55:45;26.80;99.90
59999;DHT22;45859;51.378;6.736;2022-08-19T14:58:12;26.80;99.90
59999;DHT22;45859;51.378;6.736;2022-08-19T15:00:38;26.80;99.90
59999;DHT22;45859;51.378;6.736;2022-08-19T15:03:04;26.80;99.90
59999;DHT22;45859;51.378;6.736;2022-08-19T15:05:29;26.80;99.90
59999;DHT22;45859;51.378;6.736;2022-08-19T15:07:55;26.80;99.90
59999;DHT22;45859;51.378;6.736;2022-08-19T15:10:22;26.80;99.90
59999;DHT22;45859;51.378;6.736;2022-08-19T15:12:50;26.70;99.90
59999;DHT22;45859;51.378;6.736;2022-08-19T15:15:15;26.60;99.90
59999;DHT22;45859;51.378;6.736;2022-08-19T15:17:44;26.60;99.90
59999;DHT22;45859;51.378;6.736;2022-08-19T15:20:12;26.60;99.90
59999;DHT22;45859;51.378;6.736;2022-08-19T15:22:38;26.50;99.90
59999;DHT22;45859;51.378;6.736;2022-08-19T15:25:06;26.40;99.90
59999;DHT22;45859;51.378;6.736;2022-08-19T15:27:33;26.40;99.90
59999;DHT22;45859;51.378;6.736;2022-08-19T15:29:59;26.40;99.90
59999;DHT22;45859;51.378;6.736;2022-08-19T15:32:25;26.30;99.90
59999;DHT22;45859;51.378;6.736;2022-08-19T15:34:52;26.30;99.90
59999;DHT22;45859;51.378;6.736;2022-08-19T15:37:17;26.30;99.90
59999;DHT22;45859;51.378;6.736;2022-08-19T15:39:43;26.30;99.90
59999;DHT22;45859;51.378;6.736;2022-08-19T15:42:10;26.30;99.90
59999;DHT22;45859;51.378;6.736;2022-08-19T15:44:36;26.30;99.90
59999;DHT22;45859;51.378;6.736;2022-08-19T15:47:02;26.30;99.90
59999;DHT22;45859;51.378;6.736;2022-08-19T15:49:27;26.30;99.90
59999;DHT22;45859;51.378;6.736;2022-08-19T15:51:53;26.30;99.90
59999;DHT22;45859;51.378;6.736;2022-08-19T15:54:22;26.30;99.90